createdAt,value
2022-09-09T00:00:16.793Z,11.27
2022-09-09T00:01:17.290Z,11.25
2022-09-09T00:02:17.090Z,11.27
2022-09-09T00:03:16.817Z,11.27
2022-09-09T00:04:16.544Z,11.31
2022-09-09T00:05:16.959Z,11.31
2022-09-09T00:06:16.370Z,11.31
2022-09-09T00:07:16.816Z,11.33
2022-09-09T00:08:17.263Z,11.33
2022-09-09T00:09:16.703Z,11.34
2022-09-09T00:10:17.127Z,11.34
2022-09-09T00:11:16.604Z,11.37
2022-09-09T00:12:17.270Z,11.42
2022-09-09T00:13:16.758Z,11.42
2022-09-09T00:14:17.236Z,11.44
2022-09-09T00:15:16.718Z,11.46
2022-09-09T00:16:17.319Z,11.44
2022-09-09T00:17:16.935Z,11.47
2022-09-09T00:18:16.398Z,11.42
2022-09-09T00:19:16.854Z,11.42
2022-09-09T00:20:16.299Z,11.40
2022-09-09T00:21:16.714Z,11.43
2022-09-09T00:22:16.382Z,11.43
2022-09-09T00:23:16.823Z,11.42
2022-09-09T00:24:17.323Z,11.40
2022-09-09T00:25:16.754Z,11.40
2022-09-09T00:26:17.188Z,11.36
2022-09-09T00:27:16.643Z,11.42
2022-09-09T00:28:17.103Z,11.40
2022-09-09T00:29:16.579Z,11.42
2022-09-09T00:30:17.019Z,11.39
2022-09-09T00:31:16.578Z,11.40
2022-09-09T00:32:17.142Z,11.40
2022-09-09T00:33:16.582Z,11.40
2022-09-09T00:34:17.003Z,11.40
2022-09-09T00:35:16.429Z,11.33
2022-09-09T00:36:16.839Z,11.36
2022-09-09T00:37:17.296Z,11.34
2022-09-09T00:38:16.751Z,11.37
2022-09-09T00:39:17.186Z,11.30
2022-09-09T00:40:16.641Z,11.30
2022-09-09T00:41:17.222Z,11.31
2022-09-09T00:42:16.470Z,11.33
2022-09-09T00:43:16.912Z,11.31
2022-09-09T00:44:16.349Z,11.31
2022-09-09T00:45:16.808Z,11.31
2022-09-09T00:46:17.284Z,12.41
2022-09-09T00:47:16.765Z,12.42
2022-09-09T00:48:17.224Z,12.42
2022-09-09T00:49:16.656Z,12.45
2022-09-09T00:50:17.083Z,12.45
2022-09-09T00:51:16.500Z,12.42
2022-09-09T00:52:17.190Z,12.48
2022-09-09T00:53:16.603Z,12.49
2022-09-09T00:54:17.060Z,12.55
2022-09-09T00:55:16.509Z,12.52
2022-09-09T00:56:16.918Z,12.48
2022-09-09T00:57:16.364Z,12.47
2022-09-09T00:58:16.824Z,11.34
2022-09-09T00:59:17.283Z,11.34
2022-09-09T01:00:16.754Z,11.34
2022-09-09T01:01:17.213Z,12.37
2022-09-09T01:02:16.692Z,12.35
2022-09-09T01:03:17.248Z,12.38
2022-09-09T01:04:16.726Z,12.47
2022-09-09T01:05:17.170Z,12.51
2022-09-09T01:06:16.678Z,12.52
2022-09-09T01:07:17.148Z,12.49
2022-09-09T01:08:16.597Z,12.48
2022-09-09T01:09:17.017Z,12.44
2022-09-09T01:10:16.433Z,12.51
2022-09-09T01:11:16.873Z,12.45
2022-09-09T01:12:16.529Z,12.47
2022-09-09T01:13:17.009Z,12.45
2022-09-09T01:14:16.475Z,12.41
2022-09-09T01:15:16.926Z,12.41
2022-09-09T01:16:16.434Z,12.41
2022-09-09T01:17:16.965Z,12.34
2022-09-09T01:18:16.414Z,12.32
2022-09-09T01:19:16.888Z,12.31
2022-09-09T01:20:16.317Z,12.32
2022-09-09T01:21:16.750Z,12.31
2022-09-09T01:22:17.213Z,12.27
2022-09-09T01:23:16.648Z,12.32
2022-09-09T01:24:16.337Z,12.41
2022-09-09T01:25:16.768Z,12.37
2022-09-09T01:26:17.196Z,12.34
2022-09-09T01:27:16.631Z,12.34
2022-09-09T01:28:17.146Z,12.34
2022-09-09T01:29:16.599Z,12.34
2022-09-09T01:30:17.056Z,12.44
2022-09-09T01:31:16.596Z,12.48
2022-09-09T01:32:16.500Z,12.49
2022-09-09T01:33:16.979Z,12.53
2022-09-09T01:34:16.406Z,12.51
2022-09-09T01:35:16.832Z,12.49
2022-09-09T01:36:17.251Z,12.51
2022-09-09T01:37:16.666Z,12.47
2022-09-09T01:38:17.125Z,12.45
2022-09-09T01:39:16.537Z,12.40
2022-09-09T01:40:17.042Z,12.40
2022-09-09T01:41:16.695Z,12.40
2022-09-09T01:42:17.067Z,12.38
2022-09-09T01:43:16.530Z,12.41
2022-09-09T01:44:16.979Z,12.41
2022-09-09T01:45:16.434Z,12.37
2022-09-09T01:46:16.996Z,12.44
2022-09-09T01:47:16.555Z,12.49
2022-09-09T01:48:16.999Z,12.53
2022-09-09T01:49:16.426Z,12.52
2022-09-09T01:50:16.860Z,12.51
2022-09-09T01:51:16.302Z,12.51
2022-09-09T01:52:16.846Z,12.48
2022-09-09T01:53:17.275Z,12.56
2022-09-09T01:54:16.695Z,12.66
2022-09-09T01:55:17.119Z,12.65
2022-09-09T01:56:16.567Z,12.66
2022-09-09T01:57:17.005Z,12.72
2022-09-09T01:58:16.438Z,12.70
2022-09-09T01:59:16.867Z,12.68
2022-09-09T02:00:16.562Z,12.66
2022-09-09T02:01:17.083Z,12.66
2022-09-09T02:02:16.430Z,12.68
2022-09-09T02:03:17.159Z,12.79
2022-09-09T02:04:16.578Z,12.84
2022-09-09T02:05:17.000Z,12.83
2022-09-09T02:06:16.426Z,12.72
2022-09-09T02:07:16.841Z,12.65
2022-09-09T02:08:17.254Z,12.63
2022-09-09T02:09:16.689Z,12.59
2022-09-09T02:10:17.122Z,12.55
2022-09-09T02:11:16.614Z,12.53
2022-09-09T02:12:16.993Z,12.56
2022-09-09T02:13:16.445Z,12.53
2022-09-09T02:14:16.887Z,12.56
2022-09-09T02:15:16.327Z,12.55
2022-09-09T02:16:16.783Z,12.56
2022-09-09T02:17:16.329Z,12.66
2022-09-09T02:18:16.754Z,12.72
2022-09-09T02:19:17.194Z,12.72
2022-09-09T02:20:16.625Z,12.76
2022-09-09T02:21:17.052Z,12.70
2022-09-09T02:22:16.711Z,12.65
2022-09-09T02:23:17.204Z,12.66
2022-09-09T02:24:16.742Z,12.69
2022-09-09T02:25:16.344Z,12.69
2022-09-09T02:26:16.793Z,12.69
2022-09-09T02:27:17.239Z,12.68
2022-09-09T02:28:16.684Z,12.70
2022-09-09T02:29:17.148Z,11.65
2022-09-09T02:30:16.601Z,11.65
2022-09-09T02:31:17.062Z,11.65
2022-09-09T02:32:16.532Z,12.72
2022-09-09T02:33:16.959Z,12.68
2022-09-09T02:34:16.383Z,12.73
2022-09-09T02:35:16.803Z,12.70
2022-09-09T02:36:17.223Z,12.70
2022-09-09T02:37:16.664Z,12.73
2022-09-09T02:38:17.138Z,12.76
2022-09-09T02:39:16.571Z,12.90
2022-09-09T02:40:17.069Z,12.92
2022-09-09T02:41:16.751Z,12.92
2022-09-09T02:42:16.334Z,12.92
2022-09-09T02:43:16.830Z,12.92
2022-09-09T02:44:17.295Z,11.61
2022-09-09T02:45:16.744Z,11.61
2022-09-09T02:46:17.236Z,11.61
2022-09-09T02:47:16.807Z,13.07
2022-09-09T02:48:17.247Z,13.00
2022-09-09T02:49:16.663Z,13.00
2022-09-09T02:50:17.115Z,12.96
2022-09-09T02:51:16.547Z,12.94
2022-09-09T02:52:16.958Z,12.92
2022-09-09T02:53:16.371Z,12.88
2022-09-09T02:54:16.805Z,12.88
2022-09-09T02:55:17.271Z,12.90
2022-09-09T02:56:16.723Z,12.92
2022-09-09T02:57:17.217Z,12.93
2022-09-09T02:58:16.714Z,12.92
2022-09-09T02:59:17.173Z,12.96
2022-09-09T03:00:16.630Z,12.99
2022-09-09T03:01:17.086Z,13.00
2022-09-09T03:02:17.074Z,11.85
2022-09-09T03:03:16.690Z,11.85
2022-09-09T03:04:17.112Z,11.88
2022-09-09T03:05:16.550Z,11.88
2022-09-09T03:06:16.980Z,11.88
2022-09-09T03:07:16.396Z,13.18
2022-09-09T03:08:16.811Z,13.18
2022-09-09T03:09:17.235Z,13.22
2022-09-09T03:10:16.681Z,11.99
2022-09-09T03:11:17.138Z,11.99
2022-09-09T03:12:16.470Z,11.99
2022-09-09T03:13:16.913Z,11.98
2022-09-09T03:14:16.382Z,11.98
2022-09-09T03:15:16.834Z,11.98
2022-09-09T03:16:16.340Z,13.10
2022-09-09T03:17:16.891Z,11.91
2022-09-09T03:18:16.349Z,11.91
2022-09-09T03:19:16.764Z,11.91
2022-09-09T03:20:17.198Z,13.07
2022-09-09T03:21:16.651Z,13.04
2022-09-09T03:22:16.990Z,13.04
2022-09-09T03:23:16.403Z,13.04
2022-09-09T03:24:16.850Z,13.03
2022-09-09T03:25:16.288Z,11.75
2022-09-09T03:26:16.718Z,11.75
2022-09-09T03:27:17.177Z,11.75
2022-09-09T03:28:16.638Z,13.02
2022-09-09T03:29:17.127Z,13.00
2022-09-09T03:30:16.619Z,12.99
2022-09-09T03:31:17.095Z,12.96
2022-09-09T03:32:16.616Z,12.92
2022-09-09T03:33:17.084Z,12.88
2022-09-09T03:34:16.542Z,12.90
2022-09-09T03:35:16.988Z,12.92
2022-09-09T03:36:16.477Z,12.90
2022-09-09T03:37:16.908Z,12.92
2022-09-09T03:38:16.332Z,12.93
2022-09-09T03:39:16.782Z,12.94
2022-09-09T03:40:17.336Z,12.94
2022-09-09T03:41:16.904Z,12.94
2022-09-09T03:42:16.738Z,12.99
2022-09-09T03:43:17.267Z,12.97
2022-09-09T03:44:16.734Z,13.02
2022-09-09T03:45:17.173Z,13.03
2022-09-09T03:46:16.663Z,11.61
2022-09-09T03:47:17.233Z,11.61
2022-09-09T03:48:16.659Z,11.61
2022-09-09T03:49:17.091Z,13.03
2022-09-09T03:50:16.533Z,13.03
2022-09-09T03:51:16.943Z,13.00
2022-09-09T03:52:19.390Z,13.03
2022-09-09T03:53:17.232Z,13.00
2022-09-09T03:54:16.681Z,12.99
2022-09-09T03:55:17.140Z,12.97
2022-09-09T03:56:16.621Z,12.97
2022-09-09T03:57:17.074Z,12.96
2022-09-09T03:58:16.536Z,12.94
2022-09-09T03:59:17.023Z,11.72
2022-09-09T04:00:16.476Z,11.72
2022-09-09T04:01:17.020Z,11.72
2022-09-09T04:02:17.249Z,13.08
2022-09-09T04:03:16.768Z,13.04
2022-09-09T04:04:17.247Z,13.03
2022-09-09T04:05:16.751Z,11.77
2022-09-09T04:06:17.192Z,11.77
2022-09-09T04:07:16.628Z,11.77
2022-09-09T04:08:17.059Z,13.02
2022-09-09T04:09:16.527Z,11.86
2022-09-09T04:10:16.997Z,11.86
2022-09-09T04:11:16.484Z,11.86
2022-09-09T04:12:17.015Z,13.10
2022-09-09T04:13:16.451Z,13.06
2022-09-09T04:14:16.909Z,11.99
2022-09-09T04:15:16.354Z,11.99
2022-09-09T04:16:16.822Z,11.99
2022-09-09T04:17:16.322Z,13.20
2022-09-09T04:18:19.876Z,13.21
2022-09-09T04:19:16.510Z,13.18
2022-09-09T04:20:16.939Z,13.20
2022-09-09T04:21:16.354Z,13.22
2022-09-09T04:22:17.023Z,11.85
2022-09-09T04:23:16.465Z,11.85
2022-09-09T04:24:16.914Z,11.85
2022-09-09T04:25:16.399Z,13.32
2022-09-09T04:26:16.934Z,13.38
2022-09-09T04:27:16.399Z,13.42
2022-09-09T04:28:16.871Z,11.86
2022-09-09T04:29:16.342Z,11.86
2022-09-09T04:30:16.775Z,11.86
2022-09-09T04:31:17.305Z,11.86
2022-09-09T04:32:16.931Z,11.92
2022-09-09T04:33:16.343Z,11.93
2022-09-09T04:34:16.771Z,11.92
2022-09-09T04:35:17.248Z,11.92
2022-09-09T04:36:16.667Z,11.92
2022-09-09T04:37:17.106Z,13.45
2022-09-09T04:38:16.556Z,13.50
2022-09-09T04:39:17.018Z,13.48
2022-09-09T04:40:16.598Z,12.02
2022-09-09T04:41:17.185Z,12.02
2022-09-09T04:42:16.378Z,11.99
2022-09-09T04:43:16.834Z,12.03
2022-09-09T04:44:16.307Z,12.05
2022-09-09T04:45:16.743Z,12.05
2022-09-09T04:46:17.243Z,12.05
2022-09-09T04:47:16.732Z,13.34
2022-09-09T04:48:17.158Z,12.29
2022-09-09T04:49:16.563Z,12.29
2022-09-09T04:50:17.021Z,12.39
2022-09-09T04:51:16.438Z,12.35
2022-09-09T04:52:16.526Z,12.29
2022-09-09T04:53:16.994Z,12.29
2022-09-09T04:54:16.472Z,12.28
2022-09-09T04:55:16.943Z,12.28
2022-09-09T04:56:16.399Z,12.30
2022-09-09T04:57:18.840Z,12.30
2022-09-09T04:58:16.439Z,12.29
2022-09-09T04:59:16.915Z,12.28
2022-09-09T05:00:16.379Z,12.33
2022-09-09T05:01:16.854Z,12.33
2022-09-09T05:02:16.412Z,12.32
2022-09-09T05:03:17.023Z,12.33
2022-09-09T05:04:16.459Z,12.30
2022-09-09T05:05:16.874Z,12.30
2022-09-09T05:06:16.307Z,12.37
2022-09-09T05:07:16.788Z,12.37
2022-09-09T05:08:17.275Z,12.37
2022-09-09T05:09:16.731Z,12.39
2022-09-09T05:10:17.206Z,12.39
2022-09-09T05:11:16.693Z,12.40
2022-09-09T05:12:16.539Z,12.44
2022-09-09T05:13:17.039Z,12.44
2022-09-09T05:14:16.468Z,12.46
2022-09-09T05:15:16.885Z,12.49
2022-09-09T05:16:16.365Z,12.50
2022-09-09T05:17:16.923Z,12.51
2022-09-09T05:18:16.341Z,12.53
2022-09-09T05:19:16.792Z,12.57
2022-09-09T05:20:17.519Z,12.57
2022-09-09T05:21:17.046Z,12.58
2022-09-09T05:22:17.088Z,12.58
2022-09-09T05:23:16.575Z,12.58
2022-09-09T05:24:17.070Z,12.64
2022-09-09T05:25:16.546Z,12.70
2022-09-09T05:26:17.823Z,12.71
2022-09-09T05:27:16.603Z,12.71
2022-09-09T05:28:17.063Z,12.71
2022-09-09T05:29:16.516Z,12.72
2022-09-09T05:30:16.943Z,12.77
2022-09-09T05:31:16.423Z,12.78
2022-09-09T05:32:16.980Z,12.84
2022-09-09T05:33:16.431Z,12.87
2022-09-09T05:34:16.847Z,12.91
2022-09-09T05:35:16.444Z,12.95
2022-09-09T05:36:16.911Z,13.02
2022-09-09T05:37:16.402Z,13.08
2022-09-09T05:38:16.872Z,13.09
2022-09-09T05:39:16.342Z,13.18
2022-09-09T05:40:16.878Z,13.19
2022-09-09T05:41:16.532Z,13.22
2022-09-09T05:42:16.743Z,13.26
2022-09-09T05:43:17.187Z,13.29
2022-09-09T05:44:16.604Z,13.37
2022-09-09T05:45:17.031Z,13.36
2022-09-09T05:46:16.469Z,13.33
2022-09-09T05:47:17.050Z,13.32
2022-09-09T05:48:16.492Z,13.27
2022-09-09T05:49:16.918Z,13.27
2022-09-09T05:50:16.349Z,13.26
2022-09-09T05:51:16.795Z,13.19
2022-09-09T05:52:16.446Z,13.19
2022-09-09T05:53:16.932Z,13.23
2022-09-09T05:54:16.385Z,13.23
2022-09-09T05:55:16.871Z,13.23
2022-09-09T05:56:16.322Z,13.23
2022-09-09T05:57:16.753Z,13.22
2022-09-09T05:58:17.180Z,13.27
2022-09-09T05:59:16.592Z,13.26
2022-09-09T06:00:17.015Z,13.32
2022-09-09T06:01:16.463Z,13.36
2022-09-09T06:02:16.413Z,13.37
2022-09-09T06:03:17.110Z,13.42
2022-09-09T06:04:16.668Z,13.46
2022-09-09T06:05:17.137Z,13.53
2022-09-09T06:06:16.575Z,13.58
2022-09-09T06:07:17.067Z,13.60
2022-09-09T06:08:16.515Z,13.63
2022-09-09T06:09:16.976Z,13.70
2022-09-09T06:10:16.398Z,13.74
2022-09-09T06:11:16.852Z,13.81
2022-09-09T06:12:16.576Z,13.87
2022-09-09T06:13:16.998Z,13.87
2022-09-09T06:14:16.419Z,13.98
2022-09-09T06:15:16.836Z,14.01
2022-09-09T06:16:17.287Z,14.02
2022-09-09T06:17:16.871Z,14.07
2022-09-09T06:18:16.324Z,14.05
2022-09-09T06:19:16.804Z,14.18
2022-09-09T06:20:17.284Z,14.13
2022-09-09T06:21:16.759Z,14.18
2022-09-09T06:22:17.027Z,14.22
2022-09-09T06:23:16.483Z,14.33
2022-09-09T06:24:16.952Z,14.29
2022-09-09T06:25:16.369Z,14.35
2022-09-09T06:26:16.783Z,14.37
2022-09-09T06:27:17.216Z,14.37
2022-09-09T06:28:16.656Z,14.37
2022-09-09T06:29:17.096Z,14.35
2022-09-09T06:30:16.549Z,14.37
2022-09-09T06:31:17.006Z,14.50
2022-09-09T06:32:16.439Z,14.52
2022-09-09T06:33:16.881Z,14.59
2022-09-09T06:34:16.339Z,14.66
2022-09-09T06:35:16.780Z,14.74
2022-09-09T06:36:17.247Z,14.78
2022-09-09T06:37:16.707Z,14.76
2022-09-09T06:38:17.145Z,14.77
2022-09-09T06:39:16.577Z,14.85
2022-09-09T06:40:16.394Z,14.91
2022-09-09T06:41:16.941Z,14.88
2022-09-09T06:42:16.494Z,14.87
2022-09-09T06:43:16.939Z,14.84
2022-09-09T06:44:16.414Z,14.85
2022-09-09T06:45:16.863Z,14.88
2022-09-09T06:46:16.362Z,14.94
2022-09-09T06:47:16.934Z,14.97
2022-09-09T06:48:16.416Z,15.05
2022-09-09T06:49:16.895Z,15.15
2022-09-09T06:50:16.351Z,15.22
2022-09-09T06:51:16.809Z,15.29
2022-09-09T06:52:17.086Z,15.33
2022-09-09T06:53:16.534Z,15.47
2022-09-09T06:54:16.955Z,15.50
2022-09-09T06:55:16.370Z,15.67
2022-09-09T06:56:18.012Z,15.69
2022-09-09T06:57:33.996Z,15.71
2022-09-09T06:58:16.607Z,15.73
2022-09-09T06:59:17.030Z,15.78
2022-09-09T07:00:16.476Z,15.74
2022-09-09T07:01:17.022Z,15.76
2022-09-09T07:02:17.291Z,15.76
2022-09-09T07:03:16.849Z,15.81
2022-09-09T07:04:16.335Z,15.92
2022-09-09T07:05:16.794Z,16.05
2022-09-09T07:06:17.287Z,16.07
2022-09-09T07:07:16.717Z,15.97
2022-09-09T07:08:17.150Z,15.95
2022-09-09T07:09:16.588Z,15.97
2022-09-09T07:10:17.060Z,15.97
2022-09-09T07:11:16.472Z,15.94
2022-09-09T07:12:16.431Z,15.98
2022-09-09T07:13:16.872Z,15.98
2022-09-09T07:14:16.293Z,15.87
2022-09-09T07:15:16.726Z,15.98
2022-09-09T07:16:17.205Z,15.95
2022-09-09T07:17:16.730Z,15.98
2022-09-09T07:18:17.187Z,16.00
2022-09-09T07:19:16.760Z,16.02
2022-09-09T07:20:17.225Z,15.92
2022-09-09T07:21:16.659Z,16.01
2022-09-09T07:22:16.530Z,16.08
2022-09-09T07:23:17.016Z,16.15
2022-09-09T07:24:16.438Z,16.24
2022-09-09T07:25:16.855Z,16.27
2022-09-09T07:26:17.296Z,16.32
2022-09-09T07:27:16.748Z,16.32
2022-09-09T07:28:17.179Z,16.40
2022-09-09T07:29:20.510Z,16.43
2022-09-09T07:30:21.963Z,16.38
2022-09-09T07:31:17.153Z,16.40
2022-09-09T07:32:16.738Z,16.43
2022-09-09T07:33:17.182Z,16.46
2022-09-09T07:34:16.628Z,16.46
2022-09-09T07:35:17.074Z,16.47
2022-09-09T07:36:16.529Z,16.43
2022-09-09T07:37:16.971Z,16.39
2022-09-09T07:38:16.417Z,16.40
2022-09-09T07:39:16.844Z,16.43
2022-09-09T07:40:17.278Z,16.42
2022-09-09T07:41:16.838Z,16.49
2022-09-09T07:42:16.767Z,16.59
2022-09-09T07:43:17.409Z,16.59
2022-09-09T07:44:16.946Z,16.66
2022-09-09T07:45:16.390Z,16.84
2022-09-09T07:46:16.842Z,16.83
2022-09-09T07:47:16.399Z,16.78
2022-09-09T07:48:16.845Z,16.80
2022-09-09T07:49:16.289Z,16.78
2022-09-09T07:50:16.749Z,16.78
2022-09-09T07:51:17.195Z,16.91
2022-09-09T07:52:17.020Z,17.05
2022-09-09T07:53:17.066Z,17.24
2022-09-09T07:54:16.505Z,17.39
2022-09-09T07:55:16.972Z,17.42
2022-09-09T07:56:16.387Z,17.50
2022-09-09T07:57:16.817Z,17.50
2022-09-09T07:58:17.242Z,17.49
2022-09-09T07:59:16.674Z,17.32
2022-09-09T08:00:17.141Z,17.28
2022-09-09T08:01:16.631Z,17.41
2022-09-09T08:02:16.734Z,17.48
2022-09-09T08:03:17.223Z,17.39
2022-09-09T08:04:16.770Z,17.48
2022-09-09T08:05:17.225Z,17.49
2022-09-09T08:06:16.675Z,17.39
2022-09-09T08:07:17.090Z,17.42
2022-09-09T08:08:16.529Z,17.42
2022-09-09T08:09:16.971Z,17.39
2022-09-09T08:10:16.419Z,17.42
2022-09-09T08:11:16.831Z,17.41
2022-09-09T08:12:16.421Z,17.36
2022-09-09T08:13:18.561Z,17.42
2022-09-09T08:14:16.391Z,17.45
2022-09-09T08:15:16.873Z,17.49
2022-09-09T08:16:16.371Z,17.63
2022-09-09T08:17:16.945Z,17.60
2022-09-09T08:18:16.441Z,17.69
2022-09-09T08:19:16.890Z,17.72
2022-09-09T08:20:16.400Z,17.81
2022-09-09T08:21:16.839Z,17.74
2022-09-09T08:22:16.347Z,17.83
2022-09-09T08:23:16.771Z,17.77
2022-09-09T08:24:17.253Z,17.77
2022-09-09T08:25:16.675Z,17.93
2022-09-09T08:26:17.123Z,17.93
2022-09-09T08:27:16.555Z,17.84
2022-09-09T08:28:17.002Z,17.80
2022-09-09T08:29:16.452Z,17.79
2022-09-09T08:30:16.950Z,17.79
2022-09-09T08:31:16.534Z,17.93
2022-09-09T08:32:17.179Z,17.91
2022-09-09T08:33:16.631Z,17.97
2022-09-09T08:34:17.072Z,17.96
2022-09-09T08:35:16.491Z,17.93
2022-09-09T08:36:16.923Z,18.01
2022-09-09T08:37:16.376Z,17.96
2022-09-09T08:38:16.838Z,18.05
2022-09-09T08:39:17.283Z,18.07
2022-09-09T08:40:16.799Z,18.15
2022-09-09T08:41:16.307Z,18.12
2022-09-09T08:42:16.878Z,18.19
2022-09-09T08:43:16.317Z,18.25
2022-09-09T08:44:16.792Z,18.19
2022-09-09T08:45:16.431Z,18.25
2022-09-09T08:46:16.943Z,18.25
2022-09-09T08:47:16.528Z,18.25
2022-09-09T08:48:17.022Z,18.27
2022-09-09T08:49:16.492Z,18.31
2022-09-09T08:50:16.960Z,18.33
2022-09-09T08:51:16.531Z,18.41
2022-09-09T08:52:16.817Z,18.54
2022-09-09T08:53:17.252Z,18.56
2022-09-09T08:54:25.675Z,18.56
2022-09-09T08:55:17.175Z,18.60
2022-09-09T08:56:16.605Z,18.60
2022-09-09T08:57:17.053Z,18.56
2022-09-09T08:58:16.514Z,18.66
2022-09-09T08:59:16.989Z,18.73
2022-09-09T09:00:16.514Z,18.75
2022-09-09T09:01:17.111Z,18.87
2022-09-09T09:02:17.019Z,18.91
2022-09-09T09:03:16.677Z,18.70
2022-09-09T09:04:17.125Z,18.66
2022-09-09T09:05:16.623Z,18.87
2022-09-09T09:06:17.037Z,18.95
2022-09-09T09:07:16.467Z,18.87
2022-09-09T09:08:16.890Z,19.01
2022-09-09T09:09:16.322Z,19.13
2022-09-09T09:10:37.950Z,19.24
2022-09-09T09:11:16.838Z,19.42
2022-09-09T09:12:16.759Z,19.42
2022-09-09T09:13:17.222Z,19.27
2022-09-09T09:14:16.744Z,19.27
2022-09-09T09:15:16.308Z,19.37
2022-09-09T09:16:16.858Z,19.35
2022-09-09T09:17:16.386Z,19.42
2022-09-09T09:18:16.834Z,19.35
2022-09-09T09:19:17.301Z,19.39
2022-09-09T09:20:16.716Z,19.56
2022-09-09T09:21:17.142Z,19.83
2022-09-09T09:22:16.669Z,19.90
2022-09-09T09:23:17.099Z,19.89
2022-09-09T09:24:18.447Z,19.99
2022-09-09T09:25:16.554Z,20.06
2022-09-09T09:26:16.983Z,20.14
2022-09-09T09:27:16.435Z,20.16
2022-09-09T09:28:16.896Z,20.25
2022-09-09T09:29:16.350Z,20.27
2022-09-09T09:30:28.909Z,20.42
2022-09-09T09:31:17.220Z,20.66
2022-09-09T09:32:16.809Z,20.80
2022-09-09T09:33:17.230Z,20.87
2022-09-09T09:34:16.654Z,20.92
2022-09-09T09:35:17.077Z,20.84
2022-09-09T09:36:16.495Z,20.76
2022-09-09T09:37:16.952Z,20.62
2022-09-09T09:40:16.324Z,20.37
2022-09-09T09:41:16.793Z,20.45
2022-09-09T09:42:17.812Z,20.46
2022-09-09T09:43:17.195Z,20.35
2022-09-09T09:44:16.647Z,20.48
2022-09-09T09:45:17.670Z,20.54
2022-09-09T09:46:18.139Z,20.51
2022-09-09T09:47:16.826Z,20.60
2022-09-09T09:48:16.301Z,20.60
2022-09-09T09:49:16.711Z,20.58
2022-09-09T09:50:17.134Z,20.68
2022-09-09T09:51:16.582Z,20.54
2022-09-09T09:52:16.580Z,20.46
2022-09-09T09:53:16.982Z,20.71
2022-09-09T09:54:16.405Z,20.79
2022-09-09T09:55:16.837Z,21.00
2022-09-09T09:56:17.273Z,21.10
2022-09-09T09:57:16.770Z,21.11
2022-09-09T09:58:18.394Z,21.00
2022-09-09T09:59:23.286Z,20.60
2022-09-09T10:00:17.078Z,20.55
2022-09-09T10:01:16.738Z,20.56
2022-09-09T10:02:17.010Z,20.80
2022-09-09T10:03:16.454Z,20.86
2022-09-09T10:04:16.916Z,21.07
2022-09-09T10:05:16.457Z,21.11
2022-09-09T10:06:16.889Z,21.36
2022-09-09T10:07:16.345Z,21.44
2022-09-09T10:08:16.784Z,21.38
2022-09-09T10:09:17.263Z,21.30
2022-09-09T10:10:16.716Z,21.29
2022-09-09T10:11:17.187Z,21.18
2022-09-09T10:12:16.813Z,21.31
2022-09-09T10:13:16.337Z,21.41
2022-09-09T10:14:16.939Z,21.29
2022-09-09T10:15:16.447Z,21.21
2022-09-09T10:16:16.941Z,21.03
2022-09-09T10:17:16.530Z,20.84
2022-09-09T10:18:16.953Z,20.79
2022-09-09T10:19:16.387Z,20.83
2022-09-09T10:20:16.817Z,20.87
2022-09-09T10:21:17.228Z,20.75
2022-09-09T10:22:16.866Z,20.87
2022-09-09T10:23:16.325Z,20.99
2022-09-09T10:24:16.754Z,21.06
2022-09-09T10:25:17.220Z,21.03
2022-09-09T10:26:16.693Z,21.03
2022-09-09T10:27:17.137Z,21.10
2022-09-09T10:28:16.584Z,21.04
2022-09-09T10:29:17.076Z,21.11
2022-09-09T10:30:16.629Z,21.27
2022-09-09T10:31:17.161Z,21.31
2022-09-09T10:32:16.527Z,21.41
2022-09-09T10:33:16.963Z,21.48
2022-09-09T10:34:16.370Z,21.18
2022-09-09T10:35:16.821Z,21.20
2022-09-09T10:36:16.406Z,21.25
2022-09-09T10:37:16.860Z,21.45
2022-09-09T10:38:16.287Z,21.51
2022-09-09T10:39:16.714Z,21.44
2022-09-09T10:40:17.201Z,21.59
2022-09-09T10:41:16.761Z,21.69
2022-09-09T10:42:17.186Z,21.70
2022-09-09T10:43:16.649Z,21.61
2022-09-09T10:44:17.123Z,21.59
2022-09-09T10:45:16.591Z,21.52
2022-09-09T10:46:17.050Z,21.42
2022-09-09T10:47:16.563Z,21.41
2022-09-09T10:48:17.017Z,21.34
2022-09-09T10:49:19.518Z,21.30
2022-09-09T10:50:16.530Z,21.36
2022-09-09T10:51:16.939Z,21.34
2022-09-09T10:52:16.620Z,21.34
2022-09-09T10:53:17.032Z,21.33
2022-09-09T10:54:16.487Z,21.36
2022-09-09T10:55:16.938Z,21.21
2022-09-09T10:56:16.403Z,21.24
2022-09-09T10:57:16.868Z,21.13
2022-09-09T10:58:16.371Z,21.07
2022-09-09T10:59:16.873Z,21.09
2022-09-09T11:00:16.336Z,20.92
2022-09-09T11:01:16.851Z,20.87
2022-09-09T11:02:16.644Z,20.90
2022-09-09T11:03:17.068Z,20.86
2022-09-09T11:04:16.539Z,20.89
2022-09-09T11:05:17.096Z,20.89
2022-09-09T11:06:16.658Z,20.96
2022-09-09T11:07:17.223Z,20.96
2022-09-09T11:08:16.731Z,20.87
2022-09-09T11:09:16.277Z,20.84
2022-09-09T11:10:16.757Z,20.82
2022-09-09T11:11:17.226Z,20.79
2022-09-09T11:12:16.477Z,20.96
2022-09-09T11:13:16.935Z,21.02
2022-09-09T11:14:16.381Z,21.00
2022-09-09T11:15:16.869Z,20.93
2022-09-09T11:16:16.342Z,20.90
2022-09-09T11:17:16.846Z,21.09
2022-09-09T11:18:17.275Z,21.07
2022-09-09T11:19:16.687Z,21.02
2022-09-09T11:20:17.104Z,21.24
2022-09-09T11:21:16.563Z,21.44
2022-09-09T11:22:16.569Z,21.48
2022-09-09T11:23:16.998Z,21.34
2022-09-09T11:24:16.533Z,21.44
2022-09-09T11:25:17.054Z,21.47
2022-09-09T11:26:16.682Z,21.49
2022-09-09T11:27:17.146Z,21.93
2022-09-09T11:28:16.618Z,22.06
2022-09-09T11:29:17.077Z,22.15
2022-09-09T11:30:27.415Z,22.15
2022-09-09T11:31:16.955Z,22.16
2022-09-09T11:32:16.390Z,22.10
2022-09-09T11:33:16.802Z,21.80
2022-09-09T11:34:17.242Z,21.65
2022-09-09T11:35:16.698Z,21.62
2022-09-09T11:36:17.115Z,21.70
2022-09-09T11:37:16.541Z,21.78
2022-09-09T11:38:16.966Z,21.99
2022-09-09T11:39:16.460Z,21.96
2022-09-09T11:40:16.934Z,21.97
2022-09-09T11:41:19.428Z,21.97
2022-09-09T11:42:17.122Z,21.97
2022-09-09T11:43:16.773Z,22.10
2022-09-09T11:44:17.252Z,22.05
2022-09-09T11:45:16.700Z,21.99
2022-09-09T11:46:17.179Z,22.15
2022-09-09T11:47:16.680Z,22.30
2022-09-09T11:48:17.101Z,22.33
2022-09-09T11:49:16.539Z,22.40
2022-09-09T11:50:16.963Z,22.45
2022-09-09T11:51:17.192Z,22.44
2022-09-09T11:52:16.997Z,22.48
2022-09-09T11:53:16.544Z,22.67
2022-09-09T11:54:17.018Z,22.64
2022-09-09T11:55:16.471Z,22.55
2022-09-09T11:56:16.906Z,22.43
2022-09-09T11:57:16.375Z,22.45
2022-09-09T11:58:16.928Z,22.40
2022-09-09T11:59:16.407Z,22.41
2022-09-09T12:00:16.853Z,22.44
2022-09-09T12:01:16.274Z,22.44
2022-09-09T12:02:17.033Z,22.50
2022-09-09T12:03:16.596Z,22.50
2022-09-09T12:04:21.405Z,22.45
2022-09-09T12:05:16.899Z,22.13
2022-09-09T12:06:16.437Z,22.24
2022-09-09T12:07:16.854Z,22.47
2022-09-09T12:08:16.319Z,22.50
2022-09-09T12:09:16.781Z,22.64
2022-09-09T12:10:17.234Z,22.88
2022-09-09T12:11:16.688Z,22.76
2022-09-09T12:12:16.883Z,22.89
2022-09-09T12:13:16.347Z,22.89
2022-09-09T12:14:16.818Z,23.00
2022-09-09T12:15:17.235Z,23.06
2022-09-09T12:16:16.687Z,23.02
2022-09-09T12:17:17.160Z,23.12
2022-09-09T12:18:16.599Z,22.82
2022-09-09T12:19:17.034Z,22.60
2022-09-09T12:20:16.473Z,22.61
2022-09-09T12:21:16.906Z,23.10
2022-09-09T12:22:16.496Z,23.19
2022-09-09T12:23:16.964Z,23.37
2022-09-09T12:24:16.457Z,23.43
2022-09-09T12:25:20.257Z,23.58
2022-09-09T12:26:16.833Z,23.50
2022-09-09T12:27:17.278Z,23.81
2022-09-09T12:28:16.762Z,24.02
2022-09-09T12:29:17.476Z,23.91
2022-09-09T12:30:16.906Z,24.01
2022-09-09T12:31:16.351Z,24.13
2022-09-09T12:32:17.232Z,24.09
2022-09-09T12:33:16.651Z,23.96
2022-09-09T12:34:17.069Z,23.62
2022-09-09T12:35:17.045Z,23.81
2022-09-09T12:36:16.580Z,23.75
2022-09-09T12:37:17.013Z,23.68
2022-09-09T12:38:16.465Z,23.75
2022-09-09T12:39:16.926Z,23.37
2022-09-09T12:40:16.494Z,23.07
2022-09-09T12:41:17.021Z,23.03
2022-09-09T12:42:16.388Z,23.03
2022-09-09T12:43:16.882Z,22.81
2022-09-09T12:44:16.311Z,22.64
2022-09-09T12:45:16.736Z,22.58
2022-09-09T12:46:17.177Z,22.62
2022-09-09T12:47:16.705Z,22.40
2022-09-09T12:48:17.142Z,22.17
2022-09-09T12:49:16.576Z,22.13
2022-09-09T12:50:17.061Z,21.17
2022-09-09T12:51:16.526Z,20.65
2022-09-09T12:52:16.340Z,20.48
2022-09-09T12:53:16.778Z,20.20
2022-09-09T12:54:17.469Z,20.01